createdAt,value
2022-12-20T00:01:43.516Z,4.38
2022-12-20T00:05:07.080Z,3.70
2022-12-20T00:08:30.279Z,4.63
2022-12-20T00:11:53.218Z,5.15
2022-12-20T00:15:16.230Z,6.30
2022-12-20T00:18:41.656Z,6.75
2022-12-20T00:22:04.628Z,4.53
2022-12-20T00:25:27.559Z,6.18
2022-12-20T00:28:50.480Z,4.28
2022-12-20T00:32:13.497Z,6.22
2022-12-20T00:35:42.611Z,6.50
2022-12-20T00:39:05.802Z,13.85
2022-12-20T00:42:29.745Z,9.77
2022-12-20T00:45:52.685Z,5.88
2022-12-20T00:49:16.595Z,6.63
2022-12-20T00:52:40.862Z,10.95
2022-12-20T00:56:04.976Z,5.82
2022-12-20T00:59:27.920Z,6.70
2022-12-20T01:02:51.910Z,5.03
2022-12-20T01:06:14.988Z,6.30
2022-12-20T01:09:39.257Z,5.65
2022-12-20T01:13:02.156Z,4.18
2022-12-20T01:16:27.854Z,9.70
2022-12-20T01:19:50.832Z,6.18
2022-12-20T01:23:14.076Z,4.95
2022-12-20T01:26:39.123Z,3.05
2022-12-20T01:30:02.003Z,3.83
2022-12-20T01:33:25.351Z,10.40
2022-12-20T01:36:49.484Z,3.78
2022-12-20T01:40:13.004Z,3.67
2022-12-20T01:43:49.919Z,5.60
2022-12-20T01:47:14.505Z,5.10
2022-12-20T01:50:37.615Z,3.25
2022-12-20T01:54:05.899Z,4.55
2022-12-20T01:57:34.969Z,3.95
2022-12-20T02:01:00.318Z,4.05
2022-12-20T02:04:23.257Z,3.53
2022-12-20T02:07:49.852Z,3.70
2022-12-20T02:11:27.772Z,3.50
2022-12-20T02:15:05.387Z,3.47
2022-12-20T02:18:35.404Z,4.25
2022-12-20T02:22:09.464Z,3.70
2022-12-20T02:25:50.655Z,4.68
2022-12-20T02:29:26.128Z,4.43
2022-12-20T02:33:00.492Z,5.35
2022-12-20T02:36:23.414Z,4.93
2022-12-20T02:39:48.404Z,5.00
2022-12-20T02:43:33.587Z,4.47
2022-12-20T02:46:58.340Z,7.40
2022-12-20T02:50:27.477Z,5.00
2022-12-20T02:53:50.984Z,5.22
2022-12-20T02:57:19.567Z,6.50
2022-12-20T03:00:45.603Z,10.75
2022-12-20T03:04:09.822Z,5.80
2022-12-20T03:07:36.562Z,6.30
2022-12-20T03:10:59.582Z,12.70
2022-12-20T03:14:22.913Z,8.50
2022-12-20T03:17:47.362Z,7.72
2022-12-20T03:21:10.284Z,7.47
2022-12-20T03:24:34.587Z,9.25
2022-12-20T03:28:02.174Z,14.77
2022-12-20T03:31:25.506Z,15.07
2022-12-20T03:34:50.744Z,29.67
2022-12-20T03:38:20.140Z,45.22
2022-12-20T03:41:44.698Z,49.10
2022-12-20T03:45:11.886Z,36.45
2022-12-20T03:48:34.960Z,28.70
2022-12-20T03:51:57.923Z,26.27
2022-12-20T03:55:21.231Z,17.30
2022-12-20T03:58:45.639Z,20.50
2022-12-20T04:02:10.691Z,18.33
2022-12-20T04:05:33.894Z,25.15
2022-12-20T04:08:57.310Z,38.67
2022-12-20T04:12:25.526Z,83.85
2022-12-20T04:15:53.012Z,94.05
2022-12-20T04:19:20.298Z,69.60
2022-12-20T04:22:43.587Z,40.45
2022-12-20T04:26:08.827Z,35.15
2022-12-20T04:29:32.099Z,28.65
2022-12-20T04:32:58.083Z,24.90
2022-12-20T04:36:23.113Z,25.65
2022-12-20T04:39:48.089Z,55.35
2022-12-20T04:43:34.224Z,53.38
2022-12-20T04:46:59.892Z,51.47
2022-12-20T04:50:25.504Z,41.58
2022-12-20T04:53:48.814Z,34.20
2022-12-20T04:57:22.103Z,29.83
2022-12-20T05:00:45.401Z,28.88
2022-12-20T05:04:23.043Z,25.70
2022-12-20T05:07:47.535Z,30.30
2022-12-20T05:11:11.111Z,37.90
2022-12-20T05:14:34.232Z,38.67
2022-12-20T05:18:00.252Z,33.08
2022-12-20T05:21:48.210Z,30.02
2022-12-20T05:25:30.831Z,33.53
2022-12-20T05:28:57.506Z,29.90
2022-12-20T05:32:21.880Z,35.20
2022-12-20T05:35:45.236Z,34.88
2022-12-20T05:39:11.587Z,39.85
2022-12-20T05:42:38.238Z,47.50
2022-12-20T05:46:01.626Z,52.60
2022-12-20T05:49:33.637Z,35.15
2022-12-20T05:52:58.695Z,30.20
2022-12-20T05:56:22.094Z,29.67
2022-12-20T05:59:46.597Z,29.10
2022-12-20T06:03:15.182Z,27.60
2022-12-20T06:06:38.660Z,19.25
2022-12-20T06:10:01.708Z,23.48
2022-12-20T06:13:40.572Z,16.80
2022-12-20T06:17:06.441Z,16.02
2022-12-20T06:20:29.796Z,14.27
2022-12-20T06:23:56.277Z,15.63
2022-12-20T06:27:21.471Z,13.27
2022-12-20T06:30:54.942Z,15.35
2022-12-20T06:34:33.774Z,19.33
2022-12-20T06:37:58.032Z,34.08
2022-12-20T06:41:21.467Z,33.67
2022-12-20T06:44:44.632Z,36.40
2022-12-20T06:48:07.797Z,21.73
2022-12-20T06:51:33.081Z,30.88
2022-12-20T06:54:56.966Z,28.58
2022-12-20T06:58:20.830Z,26.88
2022-12-20T07:01:45.050Z,17.33
2022-12-20T07:05:08.881Z,21.45
2022-12-20T07:08:33.223Z,19.70
2022-12-20T07:11:56.236Z,14.02
2022-12-20T07:15:19.186Z,13.93
2022-12-20T07:18:42.171Z,12.10
2022-12-20T07:22:05.765Z,13.95
2022-12-20T07:25:30.745Z,10.90
2022-12-20T07:28:53.715Z,13.20
2022-12-20T07:32:16.895Z,15.98
2022-12-20T07:35:40.301Z,22.02
2022-12-20T07:39:03.448Z,21.42
2022-12-20T07:42:33.889Z,19.15
2022-12-20T07:46:00.431Z,19.63
2022-12-20T07:49:23.577Z,16.13
2022-12-20T07:52:50.412Z,17.35
2022-12-20T07:56:14.888Z,18.65
2022-12-20T07:59:42.086Z,21.42
2022-12-20T08:03:09.016Z,17.13
2022-12-20T08:06:32.831Z,9.57
2022-12-20T08:09:55.778Z,6.97
2022-12-20T08:13:19.182Z,9.23
2022-12-20T08:16:43.634Z,6.72
2022-12-20T08:20:08.602Z,9.80
2022-12-20T08:23:31.512Z,11.50
2022-12-20T08:26:54.443Z,11.85
2022-12-20T08:30:18.553Z,8.27
2022-12-20T08:33:42.911Z,9.55
2022-12-20T08:37:14.375Z,7.57
2022-12-20T08:40:37.852Z,11.80
2022-12-20T08:44:00.833Z,7.47
2022-12-20T08:47:23.852Z,8.10
2022-12-20T08:50:48.417Z,8.50
2022-12-20T08:54:11.354Z,7.82
2022-12-20T08:57:35.147Z,7.32
2022-12-20T09:01:05.907Z,6.85
2022-12-20T09:04:29.590Z,5.15
2022-12-20T09:07:54.653Z,5.28
2022-12-20T09:11:19.421Z,4.93
2022-12-20T09:14:42.829Z,5.93
2022-12-20T09:18:06.540Z,5.50
2022-12-20T09:21:29.960Z,6.28
2022-12-20T09:24:54.283Z,6.70
2022-12-20T09:28:17.226Z,7.50
2022-12-20T09:31:40.183Z,7.80
2022-12-20T09:35:03.455Z,7.90
2022-12-20T09:38:27.214Z,8.85
2022-12-20T09:41:51.467Z,10.43
2022-12-20T09:45:21.790Z,10.07
2022-12-20T09:48:45.615Z,11.18
2022-12-20T09:52:29.884Z,19.23
2022-12-20T09:55:59.989Z,16.08
2022-12-20T09:59:24.476Z,17.38
2022-12-20T10:03:09.892Z,23.33
2022-12-20T10:06:41.957Z,16.33
2022-12-20T10:10:24.452Z,18.25
2022-12-20T10:14:00.008Z,10.15
2022-12-20T10:17:32.886Z,9.90
2022-12-20T10:21:01.802Z,12.85
2022-12-20T10:24:30.313Z,10.80
2022-12-20T10:27:56.909Z,10.80
2022-12-20T10:31:19.981Z,10.50
2022-12-20T10:34:53.036Z,10.55
2022-12-20T10:38:17.606Z,14.50
2022-12-20T10:41:51.891Z,17.48
2022-12-20T10:45:36.421Z,8.52
2022-12-20T10:49:19.536Z,14.27
2022-12-20T10:52:45.497Z,9.23
2022-12-20T10:56:18.273Z,8.63
2022-12-20T10:59:45.450Z,9.27
2022-12-20T11:03:15.737Z,7.20
2022-12-20T11:06:45.457Z,11.43
2022-12-20T11:10:20.300Z,6.18
2022-12-20T11:13:44.552Z,5.45
2022-12-20T11:17:20.597Z,5.97
2022-12-20T11:20:48.840Z,6.97
2022-12-20T11:24:19.405Z,5.93
2022-12-20T11:27:50.951Z,5.68
2022-12-20T11:31:21.721Z,6.00
2022-12-20T11:34:55.568Z,6.72
2022-12-20T11:38:28.740Z,6.93
2022-12-20T11:41:59.998Z,6.75
2022-12-20T11:45:31.417Z,5.85
2022-12-20T11:49:08.476Z,6.22
2022-12-20T11:52:38.023Z,6.05
2022-12-20T11:56:06.542Z,6.15
2022-12-20T11:59:36.536Z,5.22
2022-12-20T12:03:10.392Z,5.53
2022-12-20T12:06:37.256Z,6.07
2022-12-20T12:10:03.286Z,7.15
2022-12-20T12:13:28.765Z,5.10
2022-12-20T12:16:58.696Z,6.45
2022-12-20T12:20:32.792Z,6.20
2022-12-20T12:24:04.425Z,10.52
2022-12-20T12:27:28.998Z,5.68
2022-12-20T12:30:58.833Z,11.02
2022-12-20T12:34:35.049Z,12.02
2022-12-20T12:38:15.998Z,10.80
2022-12-20T12:41:58.110Z,10.43
2022-12-20T12:45:24.160Z,9.75
2022-12-20T12:48:51.887Z,12.15
2022-12-20T12:52:35.470Z,7.20
2022-12-20T12:56:19.368Z,8.80
2022-12-20T12:59:47.910Z,6.57
2022-12-20T13:03:16.646Z,7.20
2022-12-20T13:07:21.971Z,8.52
2022-12-20T13:10:59.253Z,9.00
2022-12-20T13:14:41.765Z,6.22
2022-12-20T13:18:19.455Z,7.25
2022-12-20T13:21:44.793Z,9.13
2022-12-20T13:25:29.602Z,9.10
2022-12-20T13:28:53.029Z,9.43
2022-12-20T13:32:31.204Z,11.65
2022-12-20T13:36:00.605Z,6.68
2022-12-20T13:39:37.017Z,6.57
2022-12-20T13:43:04.136Z,7.20
2022-12-20T13:46:29.894Z,9.68
2022-12-20T13:49:53.304Z,6.78
2022-12-20T13:53:20.564Z,12.13
2022-12-20T13:56:47.092Z,9.27
2022-12-20T14:00:16.735Z,12.52
2022-12-20T14:03:43.157Z,8.75
2022-12-20T14:07:06.882Z,8.23
2022-12-20T14:10:32.777Z,9.45
2022-12-20T14:13:57.152Z,12.88
2022-12-20T14:17:24.388Z,11.20
2022-12-20T14:20:49.318Z,10.85
2022-12-20T14:24:16.087Z,13.45
2022-12-20T14:27:40.942Z,17.00
2022-12-20T14:31:05.198Z,11.90
2022-12-20T14:34:30.924Z,11.73
2022-12-20T14:37:57.674Z,14.63
2022-12-20T14:41:34.895Z,17.35
2022-12-20T14:45:05.948Z,13.15
2022-12-20T14:48:30.459Z,10.27
2022-12-20T14:51:54.935Z,12.07
2022-12-20T14:55:19.480Z,9.82
2022-12-20T14:58:43.308Z,9.48
2022-12-20T15:02:21.658Z,17.42
2022-12-20T15:05:52.037Z,16.85
2022-12-20T15:09:15.577Z,12.57
2022-12-20T15:12:42.171Z,12.55
2022-12-20T15:16:07.238Z,10.95
2022-12-20T15:19:31.379Z,16.27
2022-12-20T15:22:56.104Z,12.48
2022-12-20T15:26:20.302Z,11.38
2022-12-20T15:29:44.150Z,13.02
2022-12-20T15:33:08.339Z,15.57
2022-12-20T15:36:33.877Z,15.25
2022-12-20T15:40:02.198Z,12.73
2022-12-20T15:43:25.711Z,15.35
2022-12-20T15:46:49.465Z,14.93
2022-12-20T15:50:13.573Z,19.38
2022-12-20T15:53:36.928Z,18.40
2022-12-20T15:57:03.379Z,18.10
2022-12-20T16:00:26.764Z,19.67
2022-12-20T16:03:50.261Z,18.40
2022-12-20T16:07:13.774Z,23.70
2022-12-20T16:10:37.078Z,26.08
2022-12-20T16:14:01.981Z,23.98
2022-12-20T16:17:25.416Z,26.60
2022-12-20T16:20:48.748Z,20.75
2022-12-20T16:24:13.097Z,21.63
2022-12-20T16:27:36.431Z,16.60
2022-12-20T16:31:01.245Z,19.95
2022-12-20T16:34:24.625Z,22.67
2022-12-20T16:37:48.396Z,18.83
2022-12-20T16:41:14.236Z,19.05
2022-12-20T16:44:37.602Z,17.98
2022-12-20T16:48:02.260Z,18.58
2022-12-20T16:51:27.090Z,21.20
2022-12-20T16:54:50.435Z,16.92
2022-12-20T16:58:13.821Z,16.02
2022-12-20T17:01:38.274Z,17.38
2022-12-20T17:05:03.180Z,20.50
2022-12-20T17:12:11.024Z,19.80
2022-12-20T17:15:34.379Z,14.75
2022-12-20T17:18:59.641Z,15.88
2022-12-20T17:26:05.531Z,15.98
2022-12-20T17:29:28.998Z,16.08
2022-12-20T17:32:53.298Z,15.55
2022-12-20T17:36:16.603Z,15.95
2022-12-20T17:39:41.268Z,20.65
2022-12-20T17:43:06.680Z,19.25
2022-12-20T17:46:30.375Z,20.35
2022-12-20T17:49:53.787Z,14.98
2022-12-20T17:53:17.049Z,18.17
2022-12-20T17:56:41.756Z,18.90
2022-12-20T18:00:05.511Z,15.43
2022-12-20T18:04:02.418Z,18.08
2022-12-20T18:07:12.165Z,18.63
2022-12-20T18:10:35.470Z,18.98
2022-12-20T18:14:00.850Z,19.45
2022-12-20T18:17:24.217Z,22.65
2022-12-20T18:20:47.620Z,24.77
2022-12-20T18:24:12.433Z,17.92
2022-12-20T18:27:39.843Z,15.13
2022-12-20T18:31:04.939Z,21.35
2022-12-20T18:34:28.495Z,19.90
2022-12-20T18:37:51.950Z,21.85
2022-12-20T18:41:16.223Z,19.98
2022-12-20T18:44:39.790Z,21.05
2022-12-20T18:48:04.523Z,26.60
2022-12-20T18:51:29.481Z,21.35
2022-12-20T18:54:53.097Z,24.35
2022-12-20T18:58:16.371Z,25.63
2022-12-20T19:01:40.132Z,24.55
2022-12-20T19:05:04.941Z,22.30
2022-12-20T19:08:29.630Z,25.35
2022-12-20T19:11:57.112Z,28.77
2022-12-20T19:15:21.162Z,31.58
2022-12-20T19:18:44.938Z,23.45
2022-12-20T19:22:09.607Z,26.95
2022-12-20T19:25:35.272Z,21.63
2022-12-20T19:28:59.039Z,20.27
2022-12-20T19:32:22.328Z,21.13
2022-12-20T19:35:55.334Z,25.20
2022-12-20T19:39:22.243Z,25.13
2022-12-20T19:42:45.608Z,30.60
2022-12-20T19:46:09.662Z,26.13
2022-12-20T19:49:33.182Z,25.10
2022-12-20T19:52:56.574Z,26.77
2022-12-20T19:56:23.020Z,29.27
2022-12-20T19:59:52.180Z,28.58
2022-12-20T20:03:19.512Z,24.08
2022-12-20T20:06:42.966Z,27.15
2022-12-20T20:10:06.635Z,33.75
2022-12-20T20:13:31.852Z,29.05
2022-12-20T20:16:55.215Z,30.30
2022-12-20T20:20:18.870Z,33.78
2022-12-20T20:23:42.324Z,35.10
2022-12-20T20:27:05.814Z,33.58
2022-12-20T20:30:30.590Z,34.67
2022-12-20T20:33:57.669Z,40.85
2022-12-20T20:37:21.046Z,39.85
2022-12-20T20:40:44.941Z,28.80
2022-12-20T20:44:08.367Z,38.00
2022-12-20T20:47:33.162Z,37.58
2022-12-20T20:50:59.252Z,34.15
2022-12-20T20:54:22.593Z,41.15
2022-12-20T20:57:45.926Z,45.53
2022-12-20T21:01:10.159Z,38.67
2022-12-20T21:04:35.044Z,35.88
2022-12-20T21:07:59.354Z,36.50
2022-12-20T21:11:22.959Z,41.45
2022-12-20T21:15:20.889Z,40.58
2022-12-20T21:18:29.992Z,37.20
2022-12-20T21:21:54.812Z,48.40
2022-12-20T21:25:18.203Z,40.08
2022-12-20T21:28:43.785Z,41.90
2022-12-20T21:32:13.910Z,40.10
2022-12-20T21:35:37.364Z,45.95
2022-12-20T21:39:02.258Z,44.63
2022-12-20T21:42:26.159Z,38.53
2022-12-20T21:45:51.560Z,45.75
2022-12-20T21:49:15.103Z,46.13
2022-12-20T21:52:40.541Z,46.53
2022-12-20T21:56:05.341Z,49.30
2022-12-20T21:59:28.711Z,42.92
2022-12-20T22:02:52.161Z,48.17
2022-12-20T22:06:15.637Z,46.97
2022-12-20T22:09:38.945Z,50.72
2022-12-20T22:13:03.674Z,47.22
2022-12-20T22:16:29.112Z,54.40
2022-12-20T22:19:52.553Z,51.25
2022-12-20T22:23:16.095Z,54.42
2022-12-20T22:26:41.501Z,47.17
2022-12-20T22:30:06.827Z,54.80
2022-12-20T22:33:30.124Z,51.00
2022-12-20T22:36:54.513Z,54.45
2022-12-20T22:40:17.904Z,65.88
2022-12-20T22:43:41.960Z,54.60
2022-12-20T22:47:06.699Z,54.33
2022-12-20T22:50:30.218Z,49.55
2022-12-20T22:53:53.595Z,51.20
2022-12-20T22:57:16.969Z,51.78
2022-12-20T23:00:40.324Z,51.65
2022-12-20T23:04:05.340Z,55.58
2022-12-20T23:07:28.825Z,54.47
2022-12-20T23:11:10.050Z,59.00
2022-12-20T23:14:51.265Z,58.42
2022-12-20T23:18:14.579Z,51.33
2022-12-20T23:21:57.086Z,50.15
2022-12-20T23:25:21.497Z,50.40
2022-12-20T23:28:45.160Z,53.53
2022-12-20T23:32:08.724Z,54.08
2022-12-20T23:35:32.359Z,60.30
2022-12-20T23:38:57.813Z,53.35
2022-12-20T23:42:21.248Z,55.20
2022-12-20T23:45:44.662Z,58.50
2022-12-20T23:49:08.073Z,55.38
2022-12-20T23:52:31.462Z,58.88
2022-12-20T23:56:00.384Z,56.72
2022-12-20T23:59:23.704Z,59.53
